Time;durP1;ratioP1;P1;durP2;ratioP2;P2;SDS_P1;SDS_P2;PMS_P1;PMS_P2;Temp;Humidity;BMP_temperature;BMP_pressure;BME280_temperature;BME280_humidity;BME280_pressure;Samples;Min_cycle;Max_cycle;Signal;HPM_P1;HPM_P2
2023/12/14 00:02:04;;;;;;;;;;;;;;;-144.99;100.00;52717.16;5109401;28;20113;-63
2023/12/14 00:04:31;;;;;;;;;;;;;;;-144.99;100.00;52778.31;5108624;28;19971;-69
2023/12/14 00:06:58;;;;;;;;;;;;;;;-144.99;100.00;52709.00;5107283;28;20036;-68
2023/12/14 00:09:25;;;;;;;;;;;;;;;-144.99;100.00;52737.53;5105671;28;20010;-69
2023/12/14 00:11:51;;;;;;;;;;;;;;;-144.99;100.00;52704.94;5103441;28;20055;-69
2023/12/14 00:14:18;;;;;;;;;;;;;;;-144.99;100.00;52706.97;5107370;28;19927;-69
2023/12/14 00:16:44;;;;;;;;;;;;;;;-144.99;100.00;52700.84;5103285;28;20019;-69
2023/12/14 00:19:11;;;;;;;;;;;;;;;-144.99;100.00;52731.44;4742255;28;10000014;-69
2023/12/14 00:21:37;;;;;;;;;;;;;;;-144.99;100.00;52741.63;5107817;28;19982;-69
2023/12/14 00:24:05;;;;;;;;;;;;;;;-144.99;100.00;52727.34;5108200;28;19958;-69
2023/12/14 00:26:32;;;;;;;;;;;;;;;-144.99;100.00;52713.09;5108004;28;19984;-70
2023/12/14 00:28:58;;;;;;;;;;;;;;;-144.99;100.00;52664.16;5103249;28;19931;-69
2023/12/14 00:31:25;;;;;;;;;;;;;;;-144.99;100.00;52725.31;5103870;28;20377;-70
2023/12/14 00:33:51;;;;;;;;;;;;;;;-144.99;100.00;52733.47;5111512;28;20352;-70
2023/12/14 00:36:19;;;;;;;;;;;;;;;-144.99;100.00;52676.38;5101336;28;19924;-69
2023/12/14 00:38:45;;;;;;;;;;;;;;;-144.99;100.00;52725.31;5110495;28;19934;-70
2023/12/14 00:41:13;;;;;;;;;;;;;;;-144.99;100.00;52688.63;5105103;28;19932;-70
2023/12/14 00:43:40;;;;;;;;;;;;;;;-144.99;100.00;52709.00;5106817;28;19924;-72
2023/12/14 00:46:06;;;;;;;;;;;;;;;-144.99;100.00;52704.94;5085542;28;20327;-72
2023/12/14 00:48:33;;;;;;;;;;;;;;;-144.99;100.00;52745.69;5104699;28;20022;-69
2023/12/14 00:50:59;;;;;;;;;;;;;;;-144.99;100.00;52698.81;5111865;28;19962;-69
2023/12/14 00:53:25;;;;;;;;;;;;;;;-144.99;100.00;52729.38;5099753;28;19959;-68
2023/12/14 00:55:52;;;;;;;;;;;;;;;-144.99;100.00;52737.53;5110776;28;19962;-69
2023/12/14 00:58:20;;;;;;;;;;;;;;;-144.99;100.00;52711.03;5109831;28;20331;-68
2023/12/14 01:00:47;;;;;;;;;;;;;;;-144.99;100.00;52745.69;5110640;28;19993;-68
2023/12/14 01:03:13;;;;;;;;;;;;;;;-144.99;100.00;52713.09;5102653;28;19981;-68
2023/12/14 01:05:40;;;;;;;;;;;;;;;-144.99;100.00;52721.22;5109025;28;20006;-68
2023/12/14 01:08:06;;;;;;;;;;;;;;;-144.99;100.00;52749.78;5112783;28;19959;-67
2023/12/14 01:10:33;;;;;;;;;;;;;;;-144.99;100.00;52704.94;5113469;28;20433;-67
2023/12/14 01:12:59;;;;;;;;;;;;;;;-144.99;100.00;52737.53;5113867;28;19924;-71
2023/12/14 01:15:27;;;;;;;;;;;;;;;-144.99;100.00;52762.00;5107716;28;19924;-72
2023/12/14 01:17:54;;;;;;;;;;;;;;;-144.99;100.00;52733.47;5097942;28;19934;-74
2023/12/14 01:20:20;;;;;;;;;;;;;;;-144.99;100.00;52709.00;5110118;28;19931;-71
2023/12/14 01:22:47;;;;;;;;;;;;;;;-144.99;100.00;52709.00;5106219;28;20442;-72
2023/12/14 01:25:13;;;;;;;;;;;;;;;-144.99;100.00;52739.56;5098200;28;19927;-70
2023/12/14 01:27:40;;;;;;;;;;;;;;;-144.99;100.00;52725.31;5102652;28;20575;-69
2023/12/14 01:30:07;;;;;;;;;;;;;;;-144.99;100.00;52694.72;5114685;22;19963;-69
2023/12/14 01:32:35;;;;;;;;;;;;;;;-144.99;100.00;52704.94;5125681;27;19932;-69
2023/12/14 01:35:02;;;;;;;;;;;;;;;-144.99;100.00;52713.09;5112463;27;19953;-69
2023/12/14 01:37:28;;;;;;;;;;;;;;;-144.99;100.00;52749.78;5092238;28;20022;-69
2023/12/14 01:39:54;;;;;;;;;;;;;;;-144.99;100.00;52729.38;5106452;28;20135;-69
2023/12/14 01:42:21;;;;;;;;;;;;;;;-144.99;100.00;52704.94;5101834;28;20309;-70
2023/12/14 01:44:47;;;;;;;;;;;;;;;-144.99;100.00;52729.38;5105446;28;20305;-69
2023/12/14 01:47:14;;;;;;;;;;;;;;;-144.99;100.00;52717.16;5101444;28;19970;-70
2023/12/14 01:49:42;;;;;;;;;;;;;;;-144.99;100.00;52702.88;5092265;28;20014;-72
2023/12/14 01:52:09;;;;;;;;;;;;;;;-144.99;100.00;52713.09;5096499;28;19931;-70
2023/12/14 01:54:35;;;;;;;;;;;;;;;-144.99;100.00;52700.84;5102765;28;19924;-76
2023/12/14 01:57:02;;;;;;;;;;;;;;;-144.99;100.00;52753.84;5096732;28;20156;-75
2023/12/14 01:59:28;;;;;;;;;;;;;;;-144.99;100.00;52713.09;5094876;28;20019;-75
2023/12/14 02:01:56;;;;;;;;;;;;;;;-144.99;100.00;52737.53;5102438;28;19974;-69
2023/12/14 02:04:24;;;;;;;;;;;;;;;-144.99;100.00;52745.69;5106188;28;19932;-68
2023/12/14 02:06:52;;;;;;;;;;;;;;;-144.99;100.00;52729.38;5103726;28;20221;-72
2023/12/14 02:09:18;;;;;;;;;;;;;;;-144.99;100.00;52723.28;5092430;28;20014;-74
2023/12/14 02:11:45;;;;;;;;;;;;;;;-144.99;100.00;52735.50;5102336;28;20026;-73
2023/12/14 02:14:11;;;;;;;;;;;;;;;-144.99;100.00;52721.22;5100840;28;19928;-74
2023/12/14 02:16:39;;;;;;;;;;;;;;;-144.99;100.00;52721.22;5106448;28;19931;-71
2023/12/14 02:19:05;;;;;;;;;;;;;;;-144.99;100.00;52698.81;5099092;28;19966;-71
2023/12/14 02:21:32;;;;;;;;;;;;;;;-144.99;100.00;52692.69;5105022;28;19977;-70
2023/12/14 02:24:00;;;;;;;;;;;;;;;-144.99;100.00;52702.88;5103685;28;19928;-70
2023/12/14 02:26:26;;;;;;;;;;;;;;;-144.99;100.00;52696.78;5106202;28;19971;-70
2023/12/14 02:28:52;;;;;;;;;;;;;;;-144.99;100.00;52717.16;5101205;28;19963;-70
2023/12/14 02:31:20;;;;;;;;;;;;;;;-144.99;100.00;52749.78;5094450;28;19946;-72
2023/12/14 02:33:46;;;;;;;;;;;;;;;-144.99;100.00;52737.53;5108818;28;19928;-71
2023/12/14 02:36:12;;;;;;;;;;;;;;;-144.99;100.00;52698.81;5104029;28;19931;-73
2023/12/14 02:38:39;;;;;;;;;;;;;;;-144.99;100.00;52688.63;5106559;28;19985;-74
2023/12/14 02:41:07;;;;;;;;;;;;;;;-144.99;100.00;52725.31;5102877;28;20339;-74
2023/12/14 02:43:34;;;;;;;;;;;;;;;-144.99;100.00;52692.69;5103707;28;19928;-74
2023/12/14 02:46:02;;;;;;;;;;;;;;;-144.99;100.00;52715.13;5104779;28;19931;-74
2023/12/14 02:48:29;;;;;;;;;;;;;;;-144.99;100.00;52700.84;5122008;28;19912;-74
2023/12/14 02:50:55;;;;;;;;;;;;;;;-144.99;100.00;52709.00;5118080;28;19928;-74
2023/12/14 02:53:22;;;;;;;;;;;;;;;-144.99;100.00;52721.22;5118384;28;19934;-75
2023/12/14 02:55:48;;;;;;;;;;;;;;;-144.99;100.00;52745.69;5105473;27;19924;-75
2023/12/14 02:58:16;;;;;;;;;;;;;;;-144.99;100.00;52743.66;5091449;28;20382;-75
2023/12/14 03:00:42;;;;;;;;;;;;;;;-144.99;100.00;52721.22;5108328;28;19924;-74
2023/12/14 03:03:09;;;;;;;;;;;;;;;-144.99;100.00;52696.78;5119686;28;20449;-74
2023/12/14 03:05:35;;;;;;;;;;;;;;;-144.99;100.00;52719.19;5118240;28;19924;-75
2023/12/14 03:08:02;;;;;;;;;;;;;;;-144.99;100.00;52696.78;5114929;28;20443;-74
2023/12/14 03:10:28;;;;;;;;;;;;;;;-144.99;100.00;52676.38;5097591;28;19975;-76
2023/12/14 03:12:55;;;;;;;;;;;;;;;-144.99;100.00;52684.53;5104462;28;19939;-76
2023/12/14 03:15:23;;;;;;;;;;;;;;;-144.99;100.00;52709.00;5103551;28;20010;-75
2023/12/14 03:17:49;;;;;;;;;;;;;;;-144.99;100.00;52749.78;5103999;28;19923;-67
2023/12/14 03:20:16;;;;;;;;;;;;;;;-144.99;100.00;52729.38;5103827;28;19924;-68
2023/12/14 03:22:42;;;;;;;;;;;;;;;-144.99;100.00;52725.31;5107486;28;20394;-67
2023/12/14 03:25:10;;;;;;;;;;;;;;;-144.99;100.00;52692.69;5102736;28;19972;-67
2023/12/14 03:27:37;;;;;;;;;;;;;;;-144.99;100.00;52725.31;5103163;28;20027;-68
2023/12/14 03:30:07;;;;;;;;;;;;;;;-144.99;100.00;52729.38;5105129;28;19932;-68
2023/12/14 03:32:35;;;;;;;;;;;;;;;-144.99;100.00;52704.94;5095618;28;20022;-68
2023/12/14 03:35:02;;;;;;;;;;;;;;;-144.99;100.00;52696.78;5104282;28;19932;-68
2023/12/14 03:37:28;;;;;;;;;;;;;;;-144.99;100.00;52717.16;5108730;28;19923;-69
2023/12/14 03:39:55;;;;;;;;;;;;;;;-144.99;100.00;52739.56;5101516;28;20232;-68
2023/12/14 03:42:22;;;;;;;;;;;;;;;-144.99;100.00;52711.03;5116880;28;19951;-71
2023/12/14 03:44:48;;;;;;;;;;;;;;;-144.99;100.00;52696.78;5121165;28;19924;-71
2023/12/14 03:47:15;;;;;;;;;;;;;;;-144.99;100.00;52696.78;5116041;28;19930;-73
2023/12/14 03:49:41;;;;;;;;;;;;;;;-144.99;100.00;52706.97;5111008;28;19924;-74
2023/12/14 03:52:09;;;;;;;;;;;;;;;-144.99;100.00;52706.97;5123156;28;19924;-72
2023/12/14 03:54:35;;;;;;;;;;;;;;;-144.99;100.00;52680.47;5120158;28;20018;-71
2023/12/14 03:57:02;;;;;;;;;;;;;;;-144.99;100.00;52684.53;5115256;28;19998;-68
2023/12/14 03:59:28;;;;;;;;;;;;;;;-144.99;100.00;52757.94;5103172;28;19956;-68
2023/12/14 04:01:55;;;;;;;;;;;;;;;-144.99;100.00;52709.00;5106311;28;19928;-69
2023/12/14 04:04:21;;;;;;;;;;;;;;;-144.99;100.00;52717.16;5110227;28;19924;-70
2023/12/14 04:06:49;;;;;;;;;;;;;;;-144.99;100.00;52713.09;5101980;28;20000;-71
2023/12/14 04:09:15;;;;;;;;;;;;;;;-144.99;100.00;52727.34;5116893;28;19924;-71
2023/12/14 04:11:42;;;;;;;;;;;;;;;-144.99;100.00;52709.00;5101776;28;20018;-71
2023/12/14 04:14:09;;;;;;;;;;;;;;;-144.99;100.00;52713.09;5094383;28;19951;-71
2023/12/14 04:16:35;;;;;;;;;;;;;;;-144.99;100.00;52692.69;5105287;28;19924;-71
2023/12/14 04:19:02;;;;;;;;;;;;;;;-144.99;100.00;52725.31;5101035;28;20024;-71
2023/12/14 04:21:29;;;;;;;;;;;;;;;-144.99;100.00;52741.63;5101485;28;20028;-70
2023/12/14 04:23:57;;;;;;;;;;;;;;;-144.99;100.00;52684.53;5097767;28;19928;-68
2023/12/14 04:26:24;;;;;;;;;;;;;;;-144.99;100.00;52704.94;5107593;28;20305;-66
2023/12/14 04:28:50;;;;;;;;;;;;;;;-144.99;100.00;52762.00;5102953;28;19929;-70
2023/12/14 04:31:16;;;;;;;;;;;;;;;-144.99;100.00;52717.16;5098859;28;19975;-70
2023/12/14 04:33:43;;;;;;;;;;;;;;;-144.99;100.00;52721.22;5100178;28;20014;-70
2023/12/14 04:36:10;;;;;;;;;;;;;;;-144.99;100.00;52715.13;5105445;28;19963;-70
2023/12/14 04:38:36;;;;;;;;;;;;;;;-144.99;100.00;52717.16;5100785;28;19977;-69
2023/12/14 04:41:04;;;;;;;;;;;;;;;-144.99;100.00;52709.00;5104314;28;19928;-70
2023/12/14 04:43:32;;;;;;;;;;;;;;;-144.99;100.00;52741.63;5101276;28;19970;-71
2023/12/14 04:45:58;;;;;;;;;;;;;;;-144.99;100.00;52717.16;5099933;28;19924;-70
2023/12/14 04:48:25;;;;;;;;;;;;;;;-144.99;100.00;52733.47;5101366;28;19968;-70
2023/12/14 04:50:51;;;;;;;;;;;;;;;-144.99;100.00;52690.66;5111891;28;19953;-70
2023/12/14 04:53:17;;;;;;;;;;;;;;;-144.99;100.00;52711.03;5102051;28;19959;-73
2023/12/14 04:55:44;;;;;;;;;;;;;;;-144.99;100.00;52721.22;5094389;28;19924;-70
2023/12/14 04:58:12;;;;;;;;;;;;;;;-144.99;100.00;52717.16;5100139;28;19961;-70
2023/12/14 05:00:39;;;;;;;;;;;;;;;-144.99;100.00;52729.38;5119646;28;19977;-70
2023/12/14 05:03:05;;;;;;;;;;;;;;;-144.99;100.00;52719.19;5116686;28;19925;-69
2023/12/14 05:05:32;;;;;;;;;;;;;;;-144.99;100.00;52753.84;5110259;28;19986;-69
2023/12/14 05:07:58;;;;;;;;;;;;;;;-144.99;100.00;52704.94;5116300;28;19924;-69
2023/12/14 05:10:27;;;;;;;;;;;;;;;-144.99;100.00;52692.69;5118891;28;20200;-69
2023/12/14 05:12:54;;;;;;;;;;;;;;;-144.99;100.00;52664.16;5113702;28;19934;-69
2023/12/14 05:15:22;;;;;;;;;;;;;;;-144.99;100.00;52715.13;5107329;28;19924;-69
2023/12/14 05:17:48;;;;;;;;;;;;;;;-144.99;100.00;52684.53;5119600;28;19959;-71
2023/12/14 05:20:15;;;;;;;;;;;;;;;-144.99;100.00;52700.84;5105218;28;19928;-71
2023/12/14 05:22:41;;;;;;;;;;;;;;;-144.99;100.00;52702.88;5110839;28;20460;-71
2023/12/14 05:25:08;;;;;;;;;;;;;;;-144.99;100.00;52721.22;5096532;28;20462;-72
2023/12/14 05:27:34;;;;;;;;;;;;;;;-144.99;100.00;52731.44;5102914;28;19978;-71
2023/12/14 05:30:02;;;;;;;;;;;;;;;-144.99;100.00;52721.22;5107576;28;19993;-71
2023/12/14 05:32:30;;;;;;;;;;;;;;;-144.99;100.00;52735.50;5100191;28;19928;-72
2023/12/14 05:34:57;;;;;;;;;;;;;;;-144.99;100.00;52717.16;5104721;28;19949;-71
2023/12/14 05:37:23;;;;;;;;;;;;;;;-144.99;100.00;52682.50;5102269;28;19927;-71
2023/12/14 05:39:50;;;;;;;;;;;;;;;-144.99;100.00;52696.78;5107512;28;19987;-72
2023/12/14 05:42:17;;;;;;;;;;;;;;;-144.99;100.00;52743.66;5097028;28;19977;-72
2023/12/14 05:44:44;;;;;;;;;;;;;;;-144.99;100.00;52719.19;5100924;28;19924;-72
2023/12/14 05:47:11;;;;;;;;;;;;;;;-144.99;100.00;52721.22;5103595;28;20034;-73
2023/12/14 05:49:41;;;;;;;;;;;;;;;-144.99;100.00;52772.19;5101870;28;19980;-72
2023/12/14 05:52:08;;;;;;;;;;;;;;;-144.99;100.00;52721.22;5098192;28;19935;-72
2023/12/14 05:54:36;;;;;;;;;;;;;;;-144.99;100.00;52745.69;5093048;28;20006;-71
2023/12/14 05:57:03;;;;;;;;;;;;;;;-144.99;100.00;52704.94;5099087;28;19959;-71
2023/12/14 05:59:29;;;;;;;;;;;;;;;-144.99;100.00;52721.22;5098364;28;19932;-71
2023/12/14 06:01:57;;;;;;;;;;;;;;;-144.99;100.00;52737.53;5097979;28;19952;-70
2023/12/14 06:04:23;;;;;;;;;;;;;;;-144.99;100.00;52739.56;5101296;28;19964;-71
2023/12/14 06:06:51;;;;;;;;;;;;;;;-144.99;100.00;52721.22;5096035;28;19924;-72
2023/12/14 06:09:19;;;;;;;;;;;;;;;-144.99;100.00;52731.44;5102114;28;19924;-72
2023/12/14 06:11:45;;;;;;;;;;;;;;;-144.99;100.00;52733.47;5097659;28;19996;-72
2023/12/14 06:14:12;;;;;;;;;;;;;;;-144.99;100.00;52696.78;5103084;28;20402;-72
2023/12/14 06:16:38;;;;;;;;;;;;;;;-144.99;100.00;52700.84;5119055;28;19931;-71
2023/12/14 06:19:05;;;;;;;;;;;;;;;-144.99;100.00;52709.00;5091362;28;19964;-72
2023/12/14 06:21:31;;;;;;;;;;;;;;;-144.99;100.00;52747.72;5098069;28;19931;-72
2023/12/14 06:23:59;;;;;;;;;;;;;;;-144.99;100.00;52692.69;5097299;28;20027;-71
2023/12/14 06:26:26;;;;;;;;;;;;;;;-144.99;100.00;52721.22;5103689;28;19924;-71
2023/12/14 06:28:52;;;;;;;;;;;;;;;-144.99;100.00;52739.56;5089748;28;19924;-71
2023/12/14 06:31:21;;;;;;;;;;;;;;;-144.99;100.00;52672.31;5102210;28;19967;-72
2023/12/14 06:33:47;;;;;;;;;;;;;;;-144.99;100.00;52721.22;5091611;28;19923;-71
2023/12/14 06:36:14;;;;;;;;;;;;;;;-144.99;100.00;52713.09;5108419;28;19959;-71
2023/12/14 06:38:40;;;;;;;;;;;;;;;-144.99;100.00;52717.16;5096548;28;19966;-70
2023/12/14 06:41:08;;;;;;;;;;;;;;;-144.99;100.00;52717.16;5101174;28;19928;-73
2023/12/14 06:43:35;;;;;;;;;;;;;;;-144.99;100.00;52749.78;5105874;28;19928;-72
2023/12/14 06:46:01;;;;;;;;;;;;;;;-144.99;100.00;52692.69;5103685;28;20612;-71
2023/12/14 06:48:28;;;;;;;;;;;;;;;-144.99;100.00;52709.00;5105648;28;20535;-72
2023/12/14 06:50:54;;;;;;;;;;;;;;;-144.99;100.00;52706.97;5106206;28;19972;-71
2023/12/14 06:53:21;;;;;;;;;;;;;;;-144.99;100.00;52733.47;5094999;28;19924;-72
2023/12/14 06:55:47;;;;;;;;;;;;;;;-144.99;100.00;52721.22;5097595;28;19969;-73
2023/12/14 06:58:15;;;;;;;;;;;;;;;-144.99;100.00;52737.53;5081368;28;19983;-73
2023/12/14 07:00:42;;;;;;;;;;;;;;;-144.99;100.00;52729.38;5110788;28;20476;-72
2023/12/14 07:03:08;;;;;;;;;;;;;;;-144.99;100.00;52694.72;5108653;28;19976;-71
2023/12/14 07:05:35;;;;;;;;;;;;;;;-144.99;100.00;52729.38;5097009;28;19924;-69
2023/12/14 07:08:01;;;;;;;;;;;;;;;-144.99;100.00;52682.50;5105879;28;19928;-69
2023/12/14 07:10:28;;;;;;;;;;;;;;;-144.99;100.00;52678.44;5105038;28;19962;-70
2023/12/14 07:12:54;;;;;;;;;;;;;;;-144.99;100.00;52723.28;5109657;28;19966;-68
2023/12/14 07:15:22;;;;;;;;;;;;;;;-144.99;100.00;52704.94;5104849;28;19969;-68
2023/12/14 07:17:49;;;;;;;;;;;;;;;-144.99;100.00;52692.69;5101200;28;19924;-67
2023/12/14 07:20:15;;;;;;;;;;;;;;;-144.99;100.00;52668.22;5099058;28;20598;-67
2023/12/14 07:22:42;;;;;;;;;;;;;;;-144.99;100.00;52717.16;5107194;28;20019;-68
2023/12/14 07:25:09;;;;;;;;;;;;;;;-144.99;100.00;52713.09;5109586;28;19955;-68
2023/12/14 07:27:35;;;;;;;;;;;;;;;-144.99;100.00;52717.16;5103513;28;20443;-69
2023/12/14 07:30:03;;;;;;;;;;;;;;;-144.99;100.00;52696.78;5107960;28;20405;-69
2023/12/14 07:32:32;;;;;;;;;;;;;;;-144.99;100.00;52717.16;5103691;28;19928;-68
2023/12/14 07:34:58;;;;;;;;;;;;;;;-144.99;100.00;52757.94;5103302;28;19985;-68
2023/12/14 07:37:25;;;;;;;;;;;;;;;-144.99;100.00;52706.97;5108911;28;19927;-68
2023/12/14 07:39:52;;;;;;;;;;;;;;;-144.99;100.00;52713.09;5104183;28;19924;-69
2023/12/14 07:42:19;;;;;;;;;;;;;;;-144.99;100.00;52711.03;5099334;28;19945;-68
2023/12/14 07:44:46;;;;;;;;;;;;;;;-144.99;100.00;52696.78;5090889;28;20036;-69
2023/12/14 07:47:13;;;;;;;;;;;;;;;-144.99;100.00;52717.16;5106771;28;19973;-69
2023/12/14 07:49:41;;;;;;;;;;;;;;;-144.99;100.00;52709.00;5096409;28;19967;-69
2023/12/14 07:52:07;;;;;;;;;;;;;;;-144.99;100.00;52725.31;5104391;28;20015;-68
2023/12/14 07:54:34;;;;;;;;;;;;;;;-144.99;100.00;52713.09;5103518;28;19977;-69
2023/12/14 07:57:00;;;;;;;;;;;;;;;-144.99;100.00;52725.31;5103134;28;20026;-68
2023/12/14 07:59:27;;;;;;;;;;;;;;;-144.99;100.00;52725.31;5103042;28;19935;-68
2023/12/14 08:01:53;;;;;;;;;;;;;;;-144.99;100.00;52700.84;5115960;28;19927;-69
2023/12/14 08:04:20;;;;;;;;;;;;;;;-144.99;100.00;52715.13;5128691;28;19928;-69
2023/12/14 08:06:48;;;;;;;;;;;;;;;-144.99;100.00;52709.00;5117757;28;19927;-70
2023/12/14 08:09:14;;;;;;;;;;;;;;;-144.99;100.00;52684.53;5113431;28;20468;-68
2023/12/14 08:11:41;;;;;;;;;;;;;;;-144.99;100.00;52725.31;5109667;28;19982;-68
2023/12/14 08:14:08;;;;;;;;;;;;;;;-144.99;100.00;52692.69;5101386;28;19985;-68
2023/12/14 08:16:34;;;;;;;;;;;;;;;-144.99;100.00;52668.22;5109220;28;19924;-68
2023/12/14 08:19:01;;;;;;;;;;;;;;;-144.99;100.00;52713.09;5107636;28;19928;-68
2023/12/14 08:21:27;;;;;;;;;;;;;;;-144.99;100.00;52721.22;5112444;28;19924;-68
2023/12/14 08:23:55;;;;;;;;;;;;;;;-144.99;100.00;52647.84;5113262;28;19927;-66
2023/12/14 08:26:21;;;;;;;;;;;;;;;-144.99;100.00;52715.13;5099807;28;19931;-66
2023/12/14 08:28:48;;;;;;;;;;;;;;;-144.99;100.00;52704.94;5104069;28;20027;-67
2023/12/14 08:31:14;;;;;;;;;;;;;;;-144.99;100.00;52678.44;5103166;28;19928;-66
2023/12/14 08:33:42;;;;;;;;;;;;;;;-144.99;100.00;52711.03;5101752;28;19981;-66
2023/12/14 08:36:09;;;;;;;;;;;;;;;-144.99;100.00;52749.78;5104414;28;20411;-66
2023/12/14 08:38:35;;;;;;;;;;;;;;;-144.99;100.00;52680.47;5106280;28;19985;-66
2023/12/14 08:41:03;;;;;;;;;;;;;;;-144.99;100.00;52749.78;5103140;28;20023;-66
2023/12/14 08:43:30;;;;;;;;;;;;;;;-144.99;100.00;52715.13;5098825;28;19993;-66
2023/12/14 08:45:56;;;;;;;;;;;;;;;-144.99;100.00;52692.69;5103204;28;20145;-65
2023/12/14 08:48:23;;;;;;;;;;;;;;;-144.99;100.00;52696.78;5100904;28;20007;-65
2023/12/14 08:50:49;;;;;;;;;;;;;;;-144.99;100.00;52696.78;5103353;28;19932;-66
2023/12/14 08:53:15;;;;;;;;;;;;;;;-144.99;100.00;52727.34;5099802;28;20058;-65
2023/12/14 08:55:42;;;;;;;;;;;;;;;-144.99;100.00;52713.09;5106860;28;19982;-65
2023/12/14 08:58:10;;;;;;;;;;;;;;;-144.99;100.00;52723.28;5099524;28;19970;-65
2023/12/14 09:00:36;;;;;;;;;;;;;;;-144.99;100.00;52723.28;5098037;28;19924;-65
2023/12/14 09:03:03;;;;;;;;;;;;;;;-144.99;100.00;52753.84;5105230;28;20397;-65
2023/12/14 09:05:29;;;;;;;;;;;;;;;-144.99;100.00;52717.16;5098605;28;19977;-66
2023/12/14 09:07:58;;;;;;;;;;;;;;;-144.99;100.00;52725.31;5096081;28;19977;-66
2023/12/14 09:10:24;;;;;;;;;;;;;;;-144.99;100.00;52704.94;5105763;28;20027;-66
2023/12/14 09:12:51;;;;;;;;;;;;;;;-144.99;100.00;52745.69;5099991;28;19963;-66
2023/12/14 09:15:19;;;;;;;;;;;;;;;-144.99;100.00;52717.16;5103986;28;19963;-65
2023/12/14 09:17:45;;;;;;;;;;;;;;;-144.99;100.00;52709.00;5091023;28;19981;-66
2023/12/14 09:20:12;;;;;;;;;;;;;;;-144.99;100.00;52733.47;5101681;28;20022;-66
2023/12/14 09:22:38;;;;;;;;;;;;;;;-144.99;100.00;52713.09;5095126;28;19928;-68
2023/12/14 09:25:05;;;;;;;;;;;;;;;-144.99;100.00;52741.63;5108434;28;19928;-66
2023/12/14 09:27:32;;;;;;;;;;;;;;;-144.99;100.00;52692.69;5100345;28;20099;-65
2023/12/14 09:29:58;;;;;;;;;;;;;;;-144.99;100.00;52690.66;5116406;28;19924;-66
2023/12/14 09:32:26;;;;;;;;;;;;;;;-144.99;100.00;52723.28;5099776;28;20372;-66
2023/12/14 09:34:56;;;;;;;;;;;;;;;-144.99;100.00;52706.97;5104886;28;19967;-67
2023/12/14 09:37:22;;;;;;;;;;;;;;;-144.99;100.00;52696.78;5097833;28;20302;-66
2023/12/14 09:39:49;;;;;;;;;;;;;;;-144.99;100.00;52676.38;5102118;28;19971;-66
2023/12/14 09:42:17;;;;;;;;;;;;;;;-144.99;100.00;52696.78;5096540;28;20233;-66
2023/12/14 09:44:44;;;;;;;;;;;;;;;-144.99;100.00;52725.31;5091268;28;19977;-66
2023/12/14 09:47:11;;;;;;;;;;;;;;;-144.99;100.00;52717.16;5102174;28;20297;-66
2023/12/14 09:49:40;;;;;;;;;;;;;;;-144.99;100.00;52713.09;5102186;28;20007;-66
2023/12/14 09:52:07;;;;;;;;;;;;;;;-144.99;100.00;52706.97;5098354;28;19943;-66
2023/12/14 09:54:33;;;;;;;;;;;;;;;-144.99;100.00;52696.78;5104563;28;20173;-66
2023/12/14 09:57:00;;;;;;;;;;;;;;;-144.99;100.00;52684.53;5107209;28;19923;-66
2023/12/14 09:59:26;;;;;;;;;;;;;;;-144.99;100.00;52711.03;5103337;28;19924;-66
2023/12/14 10:01:53;;;;;;;;;;;;;;;-144.99;100.00;52733.47;5104047;28;20071;-66
2023/12/14 10:04:21;;;;;;;;;;;;;;;-144.99;100.00;52696.78;5097579;28;20439;-66
2023/12/14 10:06:49;;;;;;;;;;;;;;;-144.99;100.00;52713.09;5095799;28;19945;-66
2023/12/14 10:09:18;;;;;;;;;;;;;;;-144.99;100.00;52729.38;5099617;28;19975;-66
2023/12/14 10:11:45;;;;;;;;;;;;;;;-144.99;100.00;52684.53;5113913;28;20115;-66
2023/12/14 10:14:21;;;;;;;;;;;;;;;-144.99;100.00;52680.47;5098857;28;20075;-66
2023/12/14 10:16:48;;;;;;;;;;;;;;;-144.99;100.00;52721.22;5096477;28;19950;-66
2023/12/14 10:19:14;;;;;;;;;;;;;;;-144.99;100.00;52725.31;5105155;28;19963;-66
2023/12/14 10:21:41;;;;;;;;;;;;;;;-144.99;100.00;52676.38;5112603;28;19970;-66
2023/12/14 10:24:09;;;;;;;;;;;;;;;-144.99;100.00;52713.09;5110615;28;20546;-66
2023/12/14 10:26:36;;;;;;;;;;;;;;;-144.99;100.00;52704.94;5106189;28;20271;-66
2023/12/14 10:29:04;;;;;;;;;;;;;;;-144.99;100.00;52717.16;5108601;28;20296;-67
2023/12/14 10:31:31;;;;;;;;;;;;;;;-144.99;100.00;52696.78;5111045;28;19924;-66
2023/12/14 10:33:57;;;;;;;;;;;;;;;-144.99;100.00;52733.47;5123665;28;19976;-66
2023/12/14 10:36:27;;;;;;;;;;;;;;;-144.99;100.00;52717.16;5107095;28;20064;-66
2023/12/14 10:38:54;;;;;;;;;;;;;;;-144.99;100.00;52713.09;5104091;28;19924;-66
2023/12/14 10:41:22;;;;;;;;;;;;;;;-144.99;100.00;52717.16;5105463;28;19924;-66
2023/12/14 10:43:49;;;;;;;;;;;;;;;-144.99;100.00;52684.53;5110649;28;19934;-66
2023/12/14 10:46:16;;;;;;;;;;;;;;;-144.99;100.00;52688.63;5108883;27;20034;-66
2023/12/14 10:48:44;;;;;;;;;;;;;;;-144.99;100.00;52713.09;5111176;28;19973;-66
2023/12/14 10:51:12;;;;;;;;;;;;;;;-144.99;100.00;52684.53;5115860;28;20063;-66
2023/12/14 10:53:39;;;;;;;;;;;;;;;-144.99;100.00;52680.47;5111232;28;19928;-66
2023/12/14 10:56:10;;;;;;;;;;;;;;;-144.99;100.00;52668.22;5115542;28;19924;-66
2023/12/14 10:58:47;;;;;;;;;;;;;;;-144.99;100.00;52678.44;5107304;28;19947;-66
2023/12/14 11:01:14;;;;;;;;;;;;;;;-144.99;100.00;52725.31;5107143;28;19924;-66
2023/12/14 11:03:41;;;;;;;;;;;;;;;-144.99;100.00;52704.94;5115453;28;19959;-66
2023/12/14 11:06:20;;;;;;;;;;;;;;;-144.99;100.00;52725.31;5099461;28;19931;-66
2023/12/14 11:08:47;;;;;;;;;;;;;;;-144.99;100.00;52713.09;5093083;28;20323;-66
2023/12/14 11:11:20;;;;;;;;;;;;;;;-144.99;100.00;52704.94;5104747;28;19928;-66
2023/12/14 11:13:49;;;;;;;;;;;;;;;-144.99;100.00;52643.78;5117053;28;20041;-66
2023/12/14 11:16:16;;;;;;;;;;;;;;;-144.99;100.00;52725.31;5121891;28;20381;-66
2023/12/14 11:18:42;;;;;;;;;;;;;;;-144.99;100.00;52709.00;5119488;28;19927;-66
2023/12/14 11:21:09;;;;;;;;;;;;;;;-144.99;100.00;52737.53;5115448;28;20417;-66
2023/12/14 11:23:38;;;;;;;;;;;;;;;-144.99;100.00;52700.84;5111431;28;19925;-66
2023/12/14 11:26:05;;;;;;;;;;;;;;;-144.99;100.00;52725.31;5107564;28;19924;-67
2023/12/14 11:28:32;;;;;;;;;;;;;;;-144.99;100.00;52729.38;5110497;28;19932;-66
2023/12/14 11:31:01;;;;;;;;;;;;;;;-144.99;100.00;52713.09;5115964;28;19942;-66
2023/12/14 11:33:28;;;;;;;;;;;;;;;-144.99;100.00;52688.63;5102482;28;19931;-66
2023/12/14 11:35:55;;;;;;;;;;;;;;;-144.99;100.00;52711.03;5104693;28;20374;-65
2023/12/14 11:38:23;;;;;;;;;;;;;;;-144.99;100.00;52713.09;5103904;28;20378;-65
2023/12/14 11:40:50;;;;;;;;;;;;;;;-144.99;100.00;52696.78;5106439;28;19980;-66
2023/12/14 11:43:16;;;;;;;;;;;;;;;-144.99;100.00;52713.09;5104191;28;19978;-66
2023/12/14 11:45:43;;;;;;;;;;;;;;;-144.99;100.00;52664.16;5108555;28;20400;-66
2023/12/14 11:48:12;;;;;;;;;;;;;;;-144.99;100.00;52711.03;5108971;28;20385;-65
2023/12/14 11:50:39;;;;;;;;;;;;;;;-144.99;100.00;52680.47;5100111;28;19971;-65
2023/12/14 11:53:05;;;;;;;;;;;;;;;-144.99;100.00;52717.16;5094720;28;20361;-66
2023/12/14 11:55:32;;;;;;;;;;;;;;;-144.99;100.00;52702.88;5111246;28;19998;-65
2023/12/14 11:57:59;;;;;;;;;;;;;;;-144.99;100.00;52649.88;5105766;28;19993;-67
2023/12/14 12:00:26;;;;;;;;;;;;;;;-144.99;100.00;52692.69;5105204;28;19974;-66
2023/12/14 12:02:52;;;;;;;;;;;;;;;-144.99;100.00;52711.03;5108571;28;19955;-66
2023/12/14 12:05:35;;;;;;;;;;;;;;;-144.99;100.00;52713.09;5104273;28;19924;-66
2023/12/14 12:08:02;;;;;;;;;;;;;;;-144.99;100.00;52725.31;5095991;28;19969;-66
2023/12/14 12:10:29;;;;;;;;;;;;;;;-144.99;100.00;52694.72;5108789;28;20413;-66
2023/12/14 12:12:59;;;;;;;;;;;;;;;-144.99;100.00;52700.84;5113734;28;19957;-66
2023/12/14 12:15:26;;;;;;;;;;;;;;;-144.99;100.00;52688.63;5109634;28;19928;-68
2023/12/14 12:17:52;;;;;;;;;;;;;;;-144.99;100.00;52700.84;5104271;28;19928;-65